Weather History for KPNM - February, 2014

Change the Weather History Date:

Saturday, February 22, 2014

  Actual Average Record
Temperature  
Mean Temperature 8 °F -  
Max Temperature 14 °F 28 °F 50 °F (1998)
Min Temperature 1 °F 12 °F -13 °F (2015)
Degree Days  
Heating Degree Days 58    
Moisture  
Dew Point -1 °F    
Average Humidity 70    
Maximum Humidity 85    
Minimum Humidity 57    
Precipitation  
Precipitation 0.00 in - - ()
Sea Level Pressure  
Sea Level Pressure 29.92 in    
Wind  
Wind Speed 10 mph (WSW)    
Max Wind Speed 15 mph    
Max Gust Speed 21 mph    
Visibility 10 miles    
Events      
Averages and records for this station are not official NWS values.
T = Trace of Precipitation, MM = Missing Value Source: NWS Daily Summary

Daily Weather History Graph

Daily Weather History Graph

Search for Another Location

Airport or City:

Trip Planner

Search our weather history database for the weather conditions in past years. The results will help you decide how hot, cold, wet, or windy it might be!

Date:

Astronomy

Feb. 22, 2014 Rise Set
Actual Time 7:04 AM CST 5:51 PM CST
Civil Twilight 6:34 AM CST 6:21 PM CST
Nautical Twilight 6:00 AM CST 6:56 PM CST
Astronomical Twilight 5:26 AM CST 7:30 PM CST
Moon 1:08 AM CST (2/22) 10:55 AM CST (2/22)
Length of Visible Light 11h 46m
Length of Day
10h 46m
Waning Gibbous, 50% of the Moon is Illuminated
Feb 22
Waning Gibbous
Mar 1
New
Mar 8
First Quarter
Mar 16
Full
Mar 23
Last Quarter

Hourly Weather History & Observations

Time (CST) Temp. Windchill Dew Point Humidity Pressure Visibility Wind Dir Wind Speed Gust Speed Precip Events Conditions
12:13 AM 8.6 °F -7.0 °F 1.4 °F 73% 29.73 in 10.0 mi WSW 12.7 mph 16.1 mph N/A   Clear
12:34 AM 8.6 °F -5.5 °F 1.4 °F 73% 29.73 in 10.0 mi WSW 10.4 mph - N/A   Clear
12:53 AM 6.8 °F -5.9 °F 1.4 °F 79% 29.74 in 10.0 mi West 8.1 mph - N/A   Clear
1:13 AM 6.8 °F -7.8 °F 1.4 °F 79% 29.75 in 10.0 mi WSW 10.4 mph - N/A   Clear
1:34 AM 6.8 °F -7.8 °F 1.4 °F 79% 29.76 in 10.0 mi WSW 10.4 mph - N/A   Clear
1:53 AM 6.8 °F -6.9 °F -0.4 °F 72% 29.77 in 10.0 mi WSW 9.2 mph - N/A   Clear
2:13 AM 6.8 °F -7.8 °F -0.4 °F 72% 29.77 in 10.0 mi WSW 10.4 mph - N/A   Clear
2:34 AM 6.8 °F -7.8 °F -0.4 °F 72% 29.78 in 10.0 mi WSW 10.4 mph 16.1 mph N/A   Clear
2:53 AM 6.8 °F -8.6 °F -0.4 °F 72% 29.78 in 10.0 mi West 11.5 mph 16.1 mph N/A   Clear
3:13 AM 5.0 °F -9.1 °F -0.4 °F 78% 29.78 in 10.0 mi West 9.2 mph - N/A   Clear
3:34 AM 5.0 °F -9.1 °F -0.4 °F 78% 29.79 in 10.0 mi West 9.2 mph - N/A   Clear
3:53 AM 5.0 °F -9.1 °F -0.4 °F 78% 29.79 in 10.0 mi West 9.2 mph - N/A   Clear
4:13 AM 5.0 °F -9.1 °F -2.2 °F 72% 29.81 in 10.0 mi WSW 9.2 mph - N/A   Clear
4:33 AM 3.2 °F -11.3 °F -2.2 °F 78% 29.82 in 10.0 mi WSW 9.2 mph - N/A   Clear
4:54 AM 3.2 °F -10.3 °F -2.2 °F 78% 29.82 in 10.0 mi West 8.1 mph - N/A   Clear
5:13 AM 3.2 °F -12.2 °F -2.2 °F 78% 29.83 in 10.0 mi West 10.4 mph - N/A   Clear
5:33 AM 3.2 °F -10.3 °F -2.2 °F 78% 29.83 in 10.0 mi West 8.1 mph - N/A   Clear
5:53 AM 1.4 °F -11.3 °F -2.2 °F 85% 29.84 in 10.0 mi West 6.9 mph - N/A   Clear
6:13 AM 1.4 °F -13.5 °F -4.0 °F 78% 29.84 in 10.0 mi WSW 9.2 mph - N/A   Clear
6:33 AM 1.4 °F -13.5 °F -4.0 °F 78% 29.85 in 10.0 mi West 9.2 mph - N/A   Clear
6:53 AM 1.4 °F -13.5 °F -4.0 °F 78% 29.86 in 10.0 mi WSW 9.2 mph - N/A   Clear
7:13 AM 1.4 °F -13.5 °F -4.0 °F 78% 29.88 in 10.0 mi WSW 9.2 mph - N/A   Clear
7:33 AM 1.4 °F -14.5 °F -4.0 °F 78% 29.89 in 10.0 mi WSW 10.4 mph - N/A   Clear
7:53 AM 3.2 °F -12.2 °F -4.0 °F 72% 29.89 in 10.0 mi WSW 10.4 mph - N/A   Clear
8:13 AM 3.2 °F -12.2 °F -4.0 °F 72% 29.90 in 10.0 mi WSW 10.4 mph 17.3 mph N/A   Clear
8:33 AM 3.2 °F -13.9 °F -4.0 °F 72% 29.90 in 10.0 mi West 12.7 mph - N/A   Clear
8:53 AM 5.0 °F -10.0 °F -2.2 °F 72% 29.90 in 10.0 mi West 10.4 mph 17.3 mph N/A   Clear
9:13 AM 5.0 °F -9.1 °F -2.2 °F 72% 29.91 in 10.0 mi West 9.2 mph - N/A   Clear
9:33 AM 5.0 °F -11.6 °F -2.2 °F 72% 29.91 in 10.0 mi West 12.7 mph 17.3 mph N/A   Clear
9:53 AM 6.8 °F -7.8 °F -2.2 °F 67% 29.91 in 10.0 mi West 10.4 mph - N/A   Clear
10:13 AM 6.8 °F -5.9 °F -2.2 °F 67% 29.93 in 10.0 mi West 8.1 mph - N/A   Clear
10:33 AM 6.8 °F -7.8 °F -2.2 °F 67% 29.93 in 10.0 mi WSW 10.4 mph - N/A   Clear
10:53 AM 8.6 °F -5.5 °F -2.2 °F 62% 29.94 in 10.0 mi West 10.4 mph - N/A   Clear
11:13 AM 8.6 °F -7.7 °F -0.4 °F 67% 29.94 in 10.0 mi West 13.8 mph - N/A   Clear
11:34 AM 10.4 °F -4.8 °F -0.4 °F 62% 29.94 in 10.0 mi WSW 12.7 mph 17.3 mph N/A   Clear
11:53 AM 10.4 °F -3.3 °F -0.4 °F 62% 29.94 in 10.0 mi West 10.4 mph - N/A   Clear
12:13 PM 10.4 °F -5.4 °F -0.4 °F 62% 29.94 in 10.0 mi West 13.8 mph 17.3 mph N/A   Clear
12:34 PM 10.4 °F -3.3 °F -0.4 °F 62% 29.93 in 10.0 mi West 10.4 mph 16.1 mph N/A   Clear
12:53 PM 12.2 °F -3.1 °F 1.4 °F 62% 29.93 in 10.0 mi WSW 13.8 mph - N/A   Clear
1:13 PM 12.2 °F -2.5 °F 1.4 °F 62% 29.93 in 10.0 mi West 12.7 mph 19.6 mph N/A   Clear
1:34 PM 12.2 °F -1.0 °F 1.4 °F 62% 29.94 in 10.0 mi West 10.4 mph 17.3 mph N/A   Clear
1:53 PM 12.2 °F -3.1 °F 1.4 °F 62% 29.94 in 10.0 mi WSW 13.8 mph 17.3 mph N/A   Clear
2:13 PM 14.0 °F -0.8 °F 1.4 °F 57% 29.95 in 10.0 mi West 13.8 mph - N/A   Clear
2:34 PM 14.0 °F -0.2 °F 1.4 °F 57% 29.95 in 10.0 mi West 12.7 mph 19.6 mph N/A   Clear
2:53 PM 14.0 °F -0.8 °F 1.4 °F 57% 29.95 in 10.0 mi WSW 13.8 mph 19.6 mph N/A   Clear
3:13 PM 14.0 °F -0.2 °F 1.4 °F 57% 29.95 in 10.0 mi West 12.7 mph 19.6 mph N/A   Clear
3:34 PM 14.0 °F -1.4 °F 1.4 °F 57% 29.96 in 10.0 mi West 15.0 mph - N/A   Clear
3:53 PM 14.0 °F -1.4 °F 1.4 °F 57% 29.96 in 10.0 mi West 15.0 mph - N/A   Clear
4:13 PM 12.2 °F -2.5 °F 1.4 °F 62% 29.96 in 10.0 mi WSW 12.7 mph 20.7 mph N/A   Clear
4:34 PM 12.2 °F -3.7 °F 1.4 °F 62% 29.97 in 10.0 mi West 15.0 mph 18.4 mph N/A   Clear
4:53 PM 12.2 °F -2.5 °F 1.4 °F 62% 29.97 in 10.0 mi West 12.7 mph 19.6 mph N/A   Clear
5:13 PM 12.2 °F -1.0 °F 1.4 °F 62% 29.98 in 10.0 mi West 10.4 mph 18.4 mph N/A   Clear
5:34 PM 10.4 °F -4.8 °F 1.4 °F 67% 29.99 in 10.0 mi WSW 12.7 mph 19.6 mph N/A   Clear
5:53 PM 10.4 °F -3.3 °F 1.4 °F 67% 29.99 in 10.0 mi WSW 10.4 mph - N/A   Clear
6:13 PM 8.6 °F -4.7 °F -0.4 °F 67% 30.00 in 10.0 mi West 9.2 mph - N/A   Clear
6:34 PM 8.6 °F -3.7 °F -0.4 °F 67% 30.01 in 10.0 mi West 8.1 mph - N/A   Clear
6:53 PM 8.6 °F -4.7 °F -0.4 °F 67% 30.01 in 10.0 mi WSW 9.2 mph - N/A   Clear
7:13 PM 8.6 °F -2.6 °F -0.4 °F 67% 30.02 in 10.0 mi WSW 6.9 mph - N/A   Clear
7:33 PM 8.6 °F -4.7 °F -0.4 °F 67% 30.02 in 10.0 mi WSW 9.2 mph - N/A   Clear
7:53 PM 6.8 °F -4.8 °F -0.4 °F 72% 30.03 in 10.0 mi WSW 6.9 mph - N/A   Clear
8:13 PM 6.8 °F -5.9 °F -0.4 °F 72% 30.03 in 10.0 mi WSW 8.1 mph - N/A   Clear
8:33 PM 6.8 °F -4.8 °F -0.4 °F 72% 30.04 in 10.0 mi WSW 6.9 mph - N/A   Clear
8:53 PM 6.8 °F -4.8 °F -0.4 °F 72% 30.04 in 10.0 mi WSW 6.9 mph - N/A   Clear
9:13 PM 6.8 °F -5.9 °F -0.4 °F 72% 30.05 in 10.0 mi WSW 8.1 mph - N/A   Clear
9:33 PM 6.8 °F -4.8 °F -0.4 °F 72% 30.05 in 10.0 mi West 6.9 mph - N/A   Clear
9:53 PM 6.8 °F -4.8 °F -0.4 °F 72% 30.06 in 10.0 mi WSW 6.9 mph - N/A   Clear
10:13 PM 6.8 °F -5.9 °F -0.4 °F 72% 30.06 in 10.0 mi WSW 8.1 mph - N/A   Clear
10:33 PM 5.0 °F -6.9 °F -2.2 °F 72% 30.07 in 10.0 mi West 6.9 mph - N/A   Clear
10:53 PM 5.0 °F -6.9 °F -2.2 °F 72% 30.08 in 10.0 mi West 6.9 mph - N/A   Clear
11:13 PM 5.0 °F -6.9 °F -2.2 °F 72% 30.08 in 10.0 mi West 6.9 mph - N/A   Clear
11:33 PM 3.2 °F -12.2 °F -2.2 °F 78% 30.08 in 10.0 mi West 10.4 mph - N/A   Clear
11:53 PM 3.2 °F -9.1 °F -2.2 °F 78% 30.09 in 10.0 mi West 6.9 mph - N/A   Clear